sensor_id;sensor_type;location;lat;lon;timestamp;pressure;altitude;pressure_sealevel;temperature;humidity
48810;BME280;40070;47.322;18.784;2023-08-20T00:01:19;1005.82;;;22.68;82.36
48810;BME280;40070;47.322;18.784;2023-08-20T00:03:22;1005.82;;;22.56;83.20
48810;BME280;40070;47.322;18.784;2023-08-20T00:05:23;1005.81;;;22.37;83.84
48810;BME280;40070;47.322;18.784;2023-08-20T00:07:24;1005.80;;;22.45;83.91
48810;BME280;40070;47.322;18.784;2023-08-20T00:09:25;1005.80;;;22.44;83.46
48810;BME280;40070;47.322;18.784;2023-08-20T00:11:26;1005.78;;;22.55;83.18
48810;BME280;40070;47.322;18.784;2023-08-20T00:13:27;1005.83;;;22.65;82.60
48810;BME280;40070;47.322;18.784;2023-08-20T00:15:28;1005.81;;;22.70;82.33
48810;BME280;40070;47.322;18.784;2023-08-20T00:17:29;1005.81;;;22.56;82.59
48810;BME280;40070;47.322;18.784;2023-08-20T00:19:30;1005.79;;;22.38;83.56
48810;BME280;40070;47.322;18.784;2023-08-20T00:21:31;1005.77;;;22.32;83.91
48810;BME280;40070;47.322;18.784;2023-08-20T00:23:32;1005.77;;;22.29;84.10
48810;BME280;40070;47.322;18.784;2023-08-20T00:25:34;1005.75;;;22.35;83.59
48810;BME280;40070;47.322;18.784;2023-08-20T00:27:35;1005.78;;;22.28;84.27
48810;BME280;40070;47.322;18.784;2023-08-20T00:29:35;1005.70;;;22.16;84.42
48810;BME280;40070;47.322;18.784;2023-08-20T00:31:36;1005.71;;;22.18;84.36
48810;BME280;40070;47.322;18.784;2023-08-20T00:33:38;1005.68;;;22.04;85.08
48810;BME280;40070;47.322;18.784;2023-08-20T00:35:39;1005.68;;;22.12;84.81
48810;BME280;40070;47.322;18.784;2023-08-20T00:37:40;1005.72;;;22.24;84.14
48810;BME280;40070;47.322;18.784;2023-08-20T00:39:41;1005.65;;;22.34;83.29
48810;BME280;40070;47.322;18.784;2023-08-20T00:41:42;1005.65;;;22.42;82.81
48810;BME280;40070;47.322;18.784;2023-08-20T00:43:43;1005.66;;;22.39;82.82
48810;BME280;40070;47.322;18.784;2023-08-20T00:45:44;1005.62;;;22.22;83.83
48810;BME280;40070;47.322;18.784;2023-08-20T00:47:45;1005.62;;;22.45;82.88
48810;BME280;40070;47.322;18.784;2023-08-20T00:49:47;1005.61;;;22.69;81.47
48810;BME280;40070;47.322;18.784;2023-08-20T00:51:49;1005.62;;;22.66;81.31
48810;BME280;40070;47.322;18.784;2023-08-20T00:53:50;1005.64;;;22.58;81.54
48810;BME280;40070;47.322;18.784;2023-08-20T00:55:51;1005.66;;;22.34;82.59
48810;BME280;40070;47.322;18.784;2023-08-20T00:57:52;1005.66;;;22.32;82.74
48810;BME280;40070;47.322;18.784;2023-08-20T00:59:53;1005.67;;;22.47;82.29
48810;BME280;40070;47.322;18.784;2023-08-20T01:01:55;1005.67;;;22.45;81.95
48810;BME280;40070;47.322;18.784;2023-08-20T01:03:56;1005.69;;;22.46;81.97
48810;BME280;40070;47.322;18.784;2023-08-20T01:06:00;1005.68;;;22.40;82.16
48810;BME280;40070;47.322;18.784;2023-08-20T01:08:21;1005.73;;;22.42;82.23
48810;BME280;40070;47.322;18.784;2023-08-20T01:12:47;1005.71;;;22.39;81.41
48810;BME280;40070;47.322;18.784;2023-08-20T01:14:49;1005.72;;;22.19;82.37
48810;BME280;40070;47.322;18.784;2023-08-20T01:16:50;1005.66;;;22.35;81.62
48810;BME280;40070;47.322;18.784;2023-08-20T01:18:51;1005.73;;;22.31;81.50
48810;BME280;40070;47.322;18.784;2023-08-20T01:20:53;1005.74;;;22.32;81.37
48810;BME280;40070;47.322;18.784;2023-08-20T01:23:00;1005.75;;;22.36;81.46
48810;BME280;40070;47.322;18.784;2023-08-20T01:29:44;1005.74;;;21.58;85.52
48810;BME280;40070;47.322;18.784;2023-08-20T01:31:46;1005.75;;;21.43;86.91
48810;BME280;40070;47.322;18.784;2023-08-20T01:33:47;1005.80;;;21.34;87.79
48810;BME280;40070;47.322;18.784;2023-08-20T01:35:49;1005.84;;;21.26;88.02
48810;BME280;40070;47.322;18.784;2023-08-20T01:37:51;1005.83;;;21.64;86.44
48810;BME280;40070;47.322;18.784;2023-08-20T01:39:52;1005.84;;;21.85;84.90
48810;BME280;40070;47.322;18.784;2023-08-20T01:41:53;1005.86;;;21.91;84.24
48810;BME280;40070;47.322;18.784;2023-08-20T01:43:54;1005.87;;;21.82;84.38
48810;BME280;40070;47.322;18.784;2023-08-20T01:45:55;1005.88;;;21.74;84.32
48810;BME280;40070;47.322;18.784;2023-08-20T01:47:56;1005.89;;;21.68;84.42
48810;BME280;40070;47.322;18.784;2023-08-20T01:49:57;1005.88;;;21.97;83.23
48810;BME280;40070;47.322;18.784;2023-08-20T01:51:58;1005.87;;;22.05;82.81
48810;BME280;40070;47.322;18.784;2023-08-20T01:53:59;1005.91;;;22.01;82.53
48810;BME280;40070;47.322;18.784;2023-08-20T01:56:00;1005.92;;;21.99;82.52
48810;BME280;40070;47.322;18.784;2023-08-20T01:58:01;1005.90;;;22.03;82.46
48810;BME280;40070;47.322;18.784;2023-08-20T02:00:02;1005.88;;;22.09;82.23
48810;BME280;40070;47.322;18.784;2023-08-20T02:02:03;1005.85;;;22.18;81.20
48810;BME280;40070;47.322;18.784;2023-08-20T02:04:04;1005.85;;;22.02;82.01
48810;BME280;40070;47.322;18.784;2023-08-20T02:06:05;1005.82;;;22.01;82.18
48810;BME280;40070;47.322;18.784;2023-08-20T02:08:06;1005.82;;;22.15;81.56
48810;BME280;40070;47.322;18.784;2023-08-20T02:10:07;1005.83;;;22.06;81.99
48810;BME280;40070;47.322;18.784;2023-08-20T02:12:08;1005.82;;;22.24;81.12
48810;BME280;40070;47.322;18.784;2023-08-20T02:14:09;1005.77;;;22.19;80.89
48810;BME280;40070;47.322;18.784;2023-08-20T02:16:10;1005.79;;;22.04;81.69
48810;BME280;40070;47.322;18.784;2023-08-20T02:18:11;1005.76;;;21.64;83.25
48810;BME280;40070;47.322;18.784;2023-08-20T02:20:12;1005.75;;;21.55;84.13
48810;BME280;40070;47.322;18.784;2023-08-20T02:22:13;1005.71;;;21.35;85.41
48810;BME280;40070;47.322;18.784;2023-08-20T02:24:14;1005.68;;;21.45;85.32
48810;BME280;40070;47.322;18.784;2023-08-20T02:26:15;1005.70;;;21.39;85.25
48810;BME280;40070;47.322;18.784;2023-08-20T02:28:16;1005.72;;;21.67;84.12
48810;BME280;40070;47.322;18.784;2023-08-20T02:30:17;1005.73;;;21.68;84.14
48810;BME280;40070;47.322;18.784;2023-08-20T02:32:18;1005.74;;;21.76;83.13
48810;BME280;40070;47.322;18.784;2023-08-20T02:34:19;1005.73;;;21.52;84.32
48810;BME280;40070;47.322;18.784;2023-08-20T02:36:20;1005.71;;;21.39;84.58
48810;BME280;40070;47.322;18.784;2023-08-20T02:38:21;1005.70;;;21.40;84.70
48810;BME280;40070;47.322;18.784;2023-08-20T02:40:22;1005.68;;;21.25;85.54
48810;BME280;40070;47.322;18.784;2023-08-20T02:42:23;1005.68;;;21.25;85.72
48810;BME280;40070;47.322;18.784;2023-08-20T02:44:24;1005.68;;;21.53;84.36
48810;BME280;40070;47.322;18.784;2023-08-20T02:46:25;1005.69;;;21.79;82.47
48810;BME280;40070;47.322;18.784;2023-08-20T02:48:26;1005.70;;;21.76;81.98
48810;BME280;40070;47.322;18.784;2023-08-20T02:50:27;1005.71;;;21.77;81.85
48810;BME280;40070;47.322;18.784;2023-08-20T02:52:28;1005.72;;;21.77;81.73
48810;BME280;40070;47.322;18.784;2023-08-20T02:54:29;1005.75;;;21.76;81.70
48810;BME280;40070;47.322;18.784;2023-08-20T02:56:30;1005.72;;;21.74;81.97
48810;BME280;40070;47.322;18.784;2023-08-20T02:58:30;1005.74;;;21.77;81.54
48810;BME280;40070;47.322;18.784;2023-08-20T03:00:31;1005.80;;;21.81;81.51
48810;BME280;40070;47.322;18.784;2023-08-20T03:02:32;1005.76;;;21.66;82.24
48810;BME280;40070;47.322;18.784;2023-08-20T03:04:33;1005.77;;;21.54;83.00
48810;BME280;40070;47.322;18.784;2023-08-20T03:06:34;1005.74;;;21.46;83.22
48810;BME280;40070;47.322;18.784;2023-08-20T03:08:35;1005.76;;;21.36;83.75
48810;BME280;40070;47.322;18.784;2023-08-20T03:10:36;1005.73;;;21.63;82.88
48810;BME280;40070;47.322;18.784;2023-08-20T03:12:37;1005.76;;;21.73;82.16
48810;BME280;40070;47.322;18.784;2023-08-20T03:14:38;1005.78;;;21.72;81.86
48810;BME280;40070;47.322;18.784;2023-08-20T03:16:39;1005.76;;;21.72;81.50
48810;BME280;40070;47.322;18.784;2023-08-20T03:18:40;1005.76;;;21.35;82.82
48810;BME280;40070;47.322;18.784;2023-08-20T03:20:41;1005.81;;;21.14;84.15
48810;BME280;40070;47.322;18.784;2023-08-20T03:22:42;1005.80;;;21.09;84.85
48810;BME280;40070;47.322;18.784;2023-08-20T03:24:43;1005.80;;;21.12;85.04
48810;BME280;40070;47.322;18.784;2023-08-20T03:26:44;1005.80;;;20.96;86.04
48810;BME280;40070;47.322;18.784;2023-08-20T03:28:45;1005.80;;;20.78;87.10
48810;BME280;40070;47.322;18.784;2023-08-20T03:30:46;1005.86;;;20.96;86.46
48810;BME280;40070;47.322;18.784;2023-08-20T03:32:47;1005.83;;;21.24;84.58
48810;BME280;40070;47.322;18.784;2023-08-20T03:34:48;1005.84;;;21.42;83.42
48810;BME280;40070;47.322;18.784;2023-08-20T03:36:48;1005.84;;;21.50;82.83
48810;BME280;40070;47.322;18.784;2023-08-20T03:38:49;1005.86;;;21.54;82.31
48810;BME280;40070;47.322;18.784;2023-08-20T03:40:50;1005.85;;;21.52;82.34
48810;BME280;40070;47.322;18.784;2023-08-20T03:42:51;1005.91;;;21.62;82.08
48810;BME280;40070;47.322;18.784;2023-08-20T03:44:52;1005.92;;;21.51;81.89
48810;BME280;40070;47.322;18.784;2023-08-20T03:46:53;1005.92;;;21.50;81.81
48810;BME280;40070;47.322;18.784;2023-08-20T03:48:54;1005.99;;;21.46;81.58
48810;BME280;40070;47.322;18.784;2023-08-20T03:50:55;1006.05;;;21.42;81.67
48810;BME280;40070;47.322;18.784;2023-08-20T03:52:56;1006.08;;;21.38;81.74
48810;BME280;40070;47.322;18.784;2023-08-20T03:54:57;1006.12;;;21.32;82.03
48810;BME280;40070;47.322;18.784;2023-08-20T03:56:58;1006.14;;;21.33;82.25
48810;BME280;40070;47.322;18.784;2023-08-20T03:58:59;1006.21;;;21.27;82.81
48810;BME280;40070;47.322;18.784;2023-08-20T04:01:00;1006.23;;;21.34;82.67
48810;BME280;40070;47.322;18.784;2023-08-20T04:03:01;1006.23;;;21.34;82.19
48810;BME280;40070;47.322;18.784;2023-08-20T04:05:02;1006.26;;;21.24;82.55
48810;BME280;40070;47.322;18.784;2023-08-20T04:07:03;1006.27;;;21.38;82.49
48810;BME280;40070;47.322;18.784;2023-08-20T04:09:05;1006.30;;;21.43;82.36
48810;BME280;40070;47.322;18.784;2023-08-20T04:11:06;1006.28;;;21.47;82.48
48810;BME280;40070;47.322;18.784;2023-08-20T04:13:07;1006.28;;;21.50;82.05
48810;BME280;40070;47.322;18.784;2023-08-20T04:15:08;1006.24;;;21.51;82.27
48810;BME280;40070;47.322;18.784;2023-08-20T04:17:09;1006.25;;;21.62;82.09
48810;BME280;40070;47.322;18.784;2023-08-20T04:19:10;1006.30;;;21.46;82.80
48810;BME280;40070;47.322;18.784;2023-08-20T04:21:11;1006.30;;;21.35;83.33
48810;BME280;40070;47.322;18.784;2023-08-20T04:23:12;1006.27;;;21.30;83.33
48810;BME280;40070;47.322;18.784;2023-08-20T04:25:13;1006.30;;;21.27;83.76
48810;BME280;40070;47.322;18.784;2023-08-20T04:27:14;1006.31;;;21.21;84.12
48810;BME280;40070;47.322;18.784;2023-08-20T04:29:15;1006.29;;;21.16;84.52
48810;BME280;40070;47.322;18.784;2023-08-20T04:31:16;1006.31;;;21.37;83.22
48810;BME280;40070;47.322;18.784;2023-08-20T04:33:16;1006.26;;;21.52;82.69
48810;BME280;40070;47.322;18.784;2023-08-20T04:35:17;1006.27;;;21.64;82.26
48810;BME280;40070;47.322;18.784;2023-08-20T04:37:19;1006.25;;;21.70;82.27
48810;BME280;40070;47.322;18.784;2023-08-20T04:39:20;1006.25;;;21.78;81.15
48810;BME280;40070;47.322;18.784;2023-08-20T04:41:21;1006.21;;;21.88;80.92
48810;BME280;40070;47.322;18.784;2023-08-20T04:43:22;1006.22;;;22.01;80.03
48810;BME280;40070;47.322;18.784;2023-08-20T04:45:23;1006.21;;;21.94;80.55
48810;BME280;40070;47.322;18.784;2023-08-20T04:47:24;1006.22;;;21.85;80.87
48810;BME280;40070;47.322;18.784;2023-08-20T04:49:25;1006.20;;;21.68;81.79
48810;BME280;40070;47.322;18.784;2023-08-20T04:51:26;1006.25;;;21.37;83.33
48810;BME280;40070;47.322;18.784;2023-08-20T04:53:27;1006.28;;;21.34;84.53
48810;BME280;40070;47.322;18.784;2023-08-20T04:55:28;1006.32;;;21.31;84.84
48810;BME280;40070;47.322;18.784;2023-08-20T04:57:29;1006.31;;;21.69;83.87
48810;BME280;40070;47.322;18.784;2023-08-20T04:59:29;1006.39;;;21.98;82.65
48810;BME280;40070;47.322;18.784;2023-08-20T05:01:30;1006.42;;;22.14;82.44
48810;BME280;40070;47.322;18.784;2023-08-20T05:03:31;1006.48;;;22.23;82.23
48810;BME280;40070;47.322;18.784;2023-08-20T05:05:32;1006.44;;;22.33;81.91
48810;BME280;40070;47.322;18.784;2023-08-20T05:07:33;1006.45;;;22.42;81.79
48810;BME280;40070;47.322;18.784;2023-08-20T05:09:34;1006.47;;;22.45;81.53
48810;BME280;40070;47.322;18.784;2023-08-20T05:11:35;1006.50;;;22.53;81.13
48810;BME280;40070;47.322;18.784;2023-08-20T05:13:36;1006.52;;;22.72;79.48
48810;BME280;40070;47.322;18.784;2023-08-20T05:15:37;1006.48;;;22.72;79.74
48810;BME280;40070;47.322;18.784;2023-08-20T05:17:38;1006.50;;;22.80;79.69
48810;BME280;40070;47.322;18.784;2023-08-20T05:19:39;1006.51;;;22.86;80.15
48810;BME280;40070;47.322;18.784;2023-08-20T05:21:40;1006.50;;;22.78;79.78
48810;BME280;40070;47.322;18.784;2023-08-20T05:23:41;1006.49;;;22.88;78.56
48810;BME280;40070;47.322;18.784;2023-08-20T05:25:42;1006.55;;;23.06;78.14
48810;BME280;40070;47.322;18.784;2023-08-20T05:27:43;1006.56;;;22.99;77.90
48810;BME280;40070;47.322;18.784;2023-08-20T05:29:44;1006.58;;;22.97;78.13
48810;BME280;40070;47.322;18.784;2023-08-20T05:31:46;1006.55;;;23.07;78.33
48810;BME280;40070;47.322;18.784;2023-08-20T05:33:47;1006.57;;;23.22;77.54
48810;BME280;40070;47.322;18.784;2023-08-20T05:35:48;1006.52;;;23.08;77.77
48810;BME280;40070;47.322;18.784;2023-08-20T05:37:48;1006.56;;;23.06;78.53
48810;BME280;40070;47.322;18.784;2023-08-20T05:39:49;1006.58;;;23.10;78.57
48810;BME280;40070;47.322;18.784;2023-08-20T05:41:51;1006.59;;;23.22;78.21
48810;BME280;40070;47.322;18.784;2023-08-20T05:43:52;1006.57;;;23.51;76.99
48810;BME280;40070;47.322;18.784;2023-08-20T05:45:53;1006.60;;;23.69;76.45
48810;BME280;40070;47.322;18.784;2023-08-20T05:47:54;1006.60;;;23.79;75.99
48810;BME280;40070;47.322;18.784;2023-08-20T05:49:55;1006.62;;;23.97;75.82
48810;BME280;40070;47.322;18.784;2023-08-20T05:51:56;1006.59;;;24.06;75.10
48810;BME280;40070;47.322;18.784;2023-08-20T05:53:57;1006.61;;;24.19;74.42
48810;BME280;40070;47.322;18.784;2023-08-20T05:55:58;1006.63;;;24.22;73.00
48810;BME280;40070;47.322;18.784;2023-08-20T05:57:59;1006.67;;;24.20;73.06
48810;BME280;40070;47.322;18.784;2023-08-20T06:00:00;1006.69;;;24.28;73.23
48810;BME280;40070;47.322;18.784;2023-08-20T06:02:01;1006.70;;;24.46;73.21
48810;BME280;40070;47.322;18.784;2023-08-20T06:04:02;1006.75;;;24.26;73.76
48810;BME280;40070;47.322;18.784;2023-08-20T06:06:03;1006.75;;;24.27;74.78
48810;BME280;40070;47.322;18.784;2023-08-20T06:08:04;1006.75;;;24.54;73.56
48810;BME280;40070;47.322;18.784;2023-08-20T06:10:06;1006.76;;;24.69;72.66
48810;BME280;40070;47.322;18.784;2023-08-20T06:12:07;1006.74;;;24.57;73.82
48810;BME280;40070;47.322;18.784;2023-08-20T06:14:08;1006.75;;;24.88;72.12
48810;BME280;40070;47.322;18.784;2023-08-20T06:16:09;1006.77;;;24.88;70.87
48810;BME280;40070;47.322;18.784;2023-08-20T06:18:10;1006.73;;;24.78;71.35
48810;BME280;40070;47.322;18.784;2023-08-20T06:20:11;1006.75;;;24.80;70.65
48810;BME280;40070;47.322;18.784;2023-08-20T06:22:12;1006.75;;;25.04;69.89
48810;BME280;40070;47.322;18.784;2023-08-20T06:24:13;1006.77;;;25.26;68.93
48810;BME280;40070;47.322;18.784;2023-08-20T06:26:14;1006.79;;;25.16;69.21
48810;BME280;40070;47.322;18.784;2023-08-20T06:28:15;1006.76;;;25.31;69.14
48810;BME280;40070;47.322;18.784;2023-08-20T06:30:16;1006.77;;;25.32;70.38
48810;BME280;40070;47.322;18.784;2023-08-20T06:32:17;1006.75;;;25.41;68.96
48810;BME280;40070;47.322;18.784;2023-08-20T06:34:18;1006.74;;;25.46;67.85
48810;BME280;40070;47.322;18.784;2023-08-20T06:36:19;1006.75;;;25.41;68.07
48810;BME280;40070;47.322;18.784;2023-08-20T06:38:20;1006.73;;;25.53;69.54
48810;BME280;40070;47.322;18.784;2023-08-20T06:40:21;1006.72;;;25.54;67.55
48810;BME280;40070;47.322;18.784;2023-08-20T06:42:22;1006.72;;;25.62;67.40
48810;BME280;40070;47.322;18.784;2023-08-20T06:44:23;1006.66;;;25.55;69.43
48810;BME280;40070;47.322;18.784;2023-08-20T06:46:24;1006.68;;;25.62;68.33
48810;BME280;40070;47.322;18.784;2023-08-20T06:48:25;1006.64;;;25.71;69.16
48810;BME280;40070;47.322;18.784;2023-08-20T06:50:26;1006.64;;;26.00;68.64
48810;BME280;40070;47.322;18.784;2023-08-20T06:52:27;1006.66;;;25.99;66.80
48810;BME280;40070;47.322;18.784;2023-08-20T06:54:28;1006.62;;;26.21;65.56
48810;BME280;40070;47.322;18.784;2023-08-20T06:56:29;1006.66;;;26.25;67.52
48810;BME280;40070;47.322;18.784;2023-08-20T06:58:30;1006.66;;;26.49;66.22
48810;BME280;40070;47.322;18.784;2023-08-20T07:00:31;1006.71;;;26.65;65.87
48810;BME280;40070;47.322;18.784;2023-08-20T07:02:32;1006.72;;;26.68;65.58
48810;BME280;40070;47.322;18.784;2023-08-20T07:04:33;1006.70;;;26.81;65.51
48810;BME280;40070;47.322;18.784;2023-08-20T07:06:33;1006.68;;;26.92;67.13
48810;BME280;40070;47.322;18.784;2023-08-20T07:08:35;1006.66;;;26.87;66.43
48810;BME280;40070;47.322;18.784;2023-08-20T07:10:36;1006.66;;;27.01;64.54
48810;BME280;40070;47.322;18.784;2023-08-20T07:12:37;1006.65;;;27.24;65.18
48810;BME280;40070;47.322;18.784;2023-08-20T07:14:38;1006.63;;;27.10;64.29
48810;BME280;40070;47.322;18.784;2023-08-20T07:16:39;1006.65;;;27.10;65.91
48810;BME280;40070;47.322;18.784;2023-08-20T07:18:40;1006.68;;;27.49;65.57
48810;BME280;40070;47.322;18.784;2023-08-20T07:20:44;1006.68;;;27.64;64.68
48810;BME280;40070;47.322;18.784;2023-08-20T07:22:45;1006.70;;;27.68;66.50
48810;BME280;40070;47.322;18.784;2023-08-20T07:24:46;1006.78;;;27.49;67.16
48810;BME280;40070;47.322;18.784;2023-08-20T07:26:47;1006.78;;;27.59;65.38
48810;BME280;40070;47.322;18.784;2023-08-20T07:28:48;1006.74;;;27.73;65.54
48810;BME280;40070;47.322;18.784;2023-08-20T07:30:48;1006.72;;;27.88;64.99
48810;BME280;40070;47.322;18.784;2023-08-20T07:32:49;1006.75;;;27.95;63.51
48810;BME280;40070;47.322;18.784;2023-08-20T07:34:50;1006.74;;;27.86;63.88
48810;BME280;40070;47.322;18.784;2023-08-20T07:36:51;1006.73;;;27.96;64.29
48810;BME280;40070;47.322;18.784;2023-08-20T07:38:53;1006.74;;;28.13;64.56
48810;BME280;40070;47.322;18.784;2023-08-20T07:40:54;1006.75;;;28.05;63.93
48810;BME280;40070;47.322;18.784;2023-08-20T07:42:55;1006.76;;;28.15;64.97
48810;BME280;40070;47.322;18.784;2023-08-20T07:44:56;1006.73;;;28.36;64.14
48810;BME280;40070;47.322;18.784;2023-08-20T07:46:57;1006.70;;;28.35;65.37
48810;BME280;40070;47.322;18.784;2023-08-20T07:48:58;1006.70;;;28.42;63.79
48810;BME280;40070;47.322;18.784;2023-08-20T07:50:59;1006.73;;;28.49;63.63
48810;BME280;40070;47.322;18.784;2023-08-20T07:53:00;1006.71;;;28.49;63.16
48810;BME280;40070;47.322;18.784;2023-08-20T07:55:01;1006.76;;;28.48;63.52
48810;BME280;40070;47.322;18.784;2023-08-20T07:57:02;1006.78;;;28.84;61.86
48810;BME280;40070;47.322;18.784;2023-08-20T07:59:03;1006.77;;;28.92;62.81
48810;BME280;40070;47.322;18.784;2023-08-20T08:01:04;1006.77;;;28.85;63.44
48810;BME280;40070;47.322;18.784;2023-08-20T08:03:05;1006.79;;;28.97;61.23
48810;BME280;40070;47.322;18.784;2023-08-20T08:05:06;1006.79;;;28.97;61.21
48810;BME280;40070;47.322;18.784;2023-08-20T08:07:08;1006.79;;;29.10;61.16
48810;BME280;40070;47.322;18.784;2023-08-20T08:09:17;1006.80;;;29.05;62.43
48810;BME280;40070;47.322;18.784;2023-08-20T08:11:18;1006.82;;;29.21;61.49
48810;BME280;40070;47.322;18.784;2023-08-20T08:13:21;1006.83;;;29.28;60.18
48810;BME280;40070;47.322;18.784;2023-08-20T08:15:22;1006.79;;;29.39;59.47
48810;BME280;40070;47.322;18.784;2023-08-20T08:17:23;1006.78;;;29.48;58.61
48810;BME280;40070;47.322;18.784;2023-08-20T08:19:24;1006.78;;;29.58;59.98
48810;BME280;40070;47.322;18.784;2023-08-20T08:21:25;1006.76;;;29.72;58.24
48810;BME280;40070;47.322;18.784;2023-08-20T08:23:26;1006.76;;;29.63;59.60
48810;BME280;40070;47.322;18.784;2023-08-20T08:25:28;1006.78;;;29.72;59.14
48810;BME280;40070;47.322;18.784;2023-08-20T08:27:29;1006.77;;;29.88;60.34
48810;BME280;40070;47.322;18.784;2023-08-20T08:29:30;1006.83;;;29.93;57.88
48810;BME280;40070;47.322;18.784;2023-08-20T08:31:31;1006.78;;;30.08;57.90
48810;BME280;40070;47.322;18.784;2023-08-20T08:33:32;1006.81;;;29.99;57.35
48810;BME280;40070;47.322;18.784;2023-08-20T08:35:33;1006.79;;;29.99;58.08
48810;BME280;40070;47.322;18.784;2023-08-20T08:37:34;1006.83;;;29.94;59.13
48810;BME280;40070;47.322;18.784;2023-08-20T08:39:35;1006.82;;;29.95;58.80
48810;BME280;40070;47.322;18.784;2023-08-20T08:41:35;1006.81;;;30.18;57.99
48810;BME280;40070;47.322;18.784;2023-08-20T08:43:39;1006.75;;;30.44;58.29
48810;BME280;40070;47.322;18.784;2023-08-20T08:45:40;1006.74;;;30.41;55.67
48810;BME280;40070;47.322;18.784;2023-08-20T08:47:42;1006.75;;;30.39;57.40
48810;BME280;40070;47.322;18.784;2023-08-20T08:49:44;1006.80;;;30.66;55.80
48810;BME280;40070;47.322;18.784;2023-08-20T08:51:46;1006.82;;;30.83;56.26
48810;BME280;40070;47.322;18.784;2023-08-20T08:53:47;1006.82;;;30.59;56.55
48810;BME280;40070;47.322;18.784;2023-08-20T08:55:48;1006.83;;;30.84;57.65
48810;BME280;40070;47.322;18.784;2023-08-20T08:57:49;1006.86;;;31.12;56.48
48810;BME280;40070;47.322;18.784;2023-08-20T08:59:50;1006.87;;;30.96;54.05
48810;BME280;40070;47.322;18.784;2023-08-20T09:01:51;1006.83;;;30.95;55.44
48810;BME280;40070;47.322;18.784;2023-08-20T09:03:51;1006.85;;;30.99;53.55
48810;BME280;40070;47.322;18.784;2023-08-20T09:05:57;1006.88;;;31.19;55.26
48810;BME280;40070;47.322;18.784;2023-08-20T09:07:58;1006.86;;;31.09;54.09
48810;BME280;40070;47.322;18.784;2023-08-20T09:09:59;1006.90;;;31.05;54.58
48810;BME280;40070;47.322;18.784;2023-08-20T09:12:00;1006.89;;;31.17;53.39
48810;BME280;40070;47.322;18.784;2023-08-20T09:14:01;1006.87;;;31.25;51.47
48810;BME280;40070;47.322;18.784;2023-08-20T09:16:09;1006.90;;;31.45;53.14
48810;BME280;40070;47.322;18.784;2023-08-20T09:18:11;1006.87;;;31.58;52.97
48810;BME280;40070;47.322;18.784;2023-08-20T09:20:12;1006.94;;;31.40;53.73
48810;BME280;40070;47.322;18.784;2023-08-20T09:22:13;1006.94;;;31.43;51.13
48810;BME280;40070;47.322;18.784;2023-08-20T09:24:14;1006.91;;;31.59;50.26
48810;BME280;40070;47.322;18.784;2023-08-20T09:26:15;1006.88;;;31.56;49.72
48810;BME280;40070;47.322;18.784;2023-08-20T09:28:16;1006.89;;;31.68;51.04
48810;BME280;40070;47.322;18.784;2023-08-20T09:30:18;1006.87;;;31.97;51.20
48810;BME280;40070;47.322;18.784;2023-08-20T09:32:19;1006.83;;;32.21;51.55
48810;BME280;40070;47.322;18.784;2023-08-20T09:34:21;1006.86;;;31.97;51.52
48810;BME280;40070;47.322;18.784;2023-08-20T09:36:34;1006.84;;;32.27;49.39
48810;BME280;40070;47.322;18.784;2023-08-20T09:38:38;1006.80;;;32.66;48.87
48810;BME280;40070;47.322;18.784;2023-08-20T09:40:39;1006.80;;;32.60;50.07
48810;BME280;40070;47.322;18.784;2023-08-20T09:42:40;1006.78;;;32.81;49.76
48810;BME280;40070;47.322;18.784;2023-08-20T09:44:43;1006.78;;;32.88;49.83
48810;BME280;40070;47.322;18.784;2023-08-20T09:46:44;1006.77;;;32.88;50.04
48810;BME280;40070;47.322;18.784;2023-08-20T09:48:45;1006.80;;;32.69;49.21
48810;BME280;40070;47.322;18.784;2023-08-20T09:50:49;1006.81;;;32.41;49.37
48810;BME280;40070;47.322;18.784;2023-08-20T09:53:00;1006.76;;;32.52;46.41
48810;BME280;40070;47.322;18.784;2023-08-20T09:55:11;1006.77;;;32.87;46.41
48810;BME280;40070;47.322;18.784;2023-08-20T09:57:21;1006.75;;;33.21;47.54
48810;BME280;40070;47.322;18.784;2023-08-20T09:59:23;1006.73;;;33.22;45.99
48810;BME280;40070;47.322;18.784;2023-08-20T10:01:25;1006.70;;;32.97;47.32
48810;BME280;40070;47.322;18.784;2023-08-20T10:03:26;1006.72;;;32.69;46.96
48810;BME280;40070;47.322;18.784;2023-08-20T10:05:27;1006.72;;;32.95;48.72
48810;BME280;40070;47.322;18.784;2023-08-20T10:07:29;1006.66;;;32.95;44.20
48810;BME280;40070;47.322;18.784;2023-08-20T10:09:30;1006.64;;;32.92;45.47
48810;BME280;40070;47.322;18.784;2023-08-20T10:11:31;1006.60;;;33.01;44.85
48810;BME280;40070;47.322;18.784;2023-08-20T10:13:32;1006.61;;;33.11;47.09
48810;BME280;40070;47.322;18.784;2023-08-20T10:15:33;1006.59;;;33.49;46.91
48810;BME280;40070;47.322;18.784;2023-08-20T10:17:35;1006.61;;;33.18;48.20
48810;BME280;40070;47.322;18.784;2023-08-20T10:19:37;1006.58;;;33.44;47.15
48810;BME280;40070;47.322;18.784;2023-08-20T10:21:43;1006.58;;;33.49;45.67
48810;BME280;40070;47.322;18.784;2023-08-20T10:23:48;1006.56;;;33.52;44.54
48810;BME280;40070;47.322;18.784;2023-08-20T10:25:50;1006.59;;;33.10;43.47
48810;BME280;40070;47.322;18.784;2023-08-20T10:27:52;1006.53;;;33.52;45.35
48810;BME280;40070;47.322;18.784;2023-08-20T10:29:54;1006.50;;;33.68;44.03
48810;BME280;40070;47.322;18.784;2023-08-20T10:31:55;1006.50;;;33.59;44.71
48810;BME280;40070;47.322;18.784;2023-08-20T10:33:57;1006.52;;;33.69;44.33
48810;BME280;40070;47.322;18.784;2023-08-20T10:35:59;1006.48;;;33.81;42.83
48810;BME280;40070;47.322;18.784;2023-08-20T10:38:11;1006.45;;;33.98;40.83
48810;BME280;40070;47.322;18.784;2023-08-20T10:40:12;1006.41;;;33.88;42.46
48810;BME280;40070;47.322;18.784;2023-08-20T10:42:22;1006.43;;;33.80;45.72
48810;BME280;40070;47.322;18.784;2023-08-20T10:44:26;1006.45;;;33.79;44.97
48810;BME280;40070;47.322;18.784;2023-08-20T10:46:27;1006.40;;;34.01;42.86
48810;BME280;40070;47.322;18.784;2023-08-20T10:48:29;1006.36;;;34.27;42.94
48810;BME280;40070;47.322;18.784;2023-08-20T10:50:30;1006.39;;;34.13;43.11